Flight Track Log - Related Links

Times and Time Zones

All times are in EDT time to prevent confusion due to time zone crossing. See the UAL3776 flight status page for this flight to view local times or setup timezone preferences in your user account.

Time Position Orientation Groundspeed Altitude Reporting Facility
EDT Latitude Longitude Course Direction KTS MPH feet Rate Location/Type
Sun 12:28:34 PM 35.2353 -80.9594 68° East 171 197 1,600  Level Atlanta Center
Sun 12:29:10 PM 35.2628 -80.9761 334° Northwest 177 204 2,600 1,918 Climbing Atlanta Center
Sun 12:30:11 PM 35.3219 -81.0044 339° North 272 313 4,700 2,111 Climbing Atlanta Center
Sun 12:30:58 PM 35.3758 -80.9900 12° North 274 315 6,400 2,579 Climbing Atlanta Center
Sun 12:31:00 PM 35.1037 -81.1704 321° Northwest  Level FlightAware Approximate
Sun 12:31:58 PM 35.4464 -80.9719 12° North 283 326 9,300  Level Atlanta Center
Sun 12:32:00 PM 35.1730 -81.2167 North  Level FlightAware Approximate
Sun 12:32:58 PM 35.5311 -80.9458 14° North 297 342 11,000  Level Atlanta Center
Sun 12:33:00 PM 35.2692 -81.2091 68° East  Level FlightAware Approximate
Sun 12:33:58 PM 35.6244 -80.9192 13° North 326 375 13,200  Level Atlanta Center
Sun 12:34:58 PM 35.7131 -80.9569 341° North 323 372 15,600 2,250 Climbing Atlanta Center
Sun 12:35:58 PM 35.7975 -81.0022 336° Northwest 329 379 17,700 1,600 Climbing Atlanta Center
Sun 12:36:58 PM 35.8883 -81.0528 336° Northwest 344 396 18,800 1,150 Climbing Atlanta Center
Sun 12:37:58 PM 35.9897 -81.1028 338° Northwest 365 420 20,000 600 Climbing Atlanta Center
Sun 12:38:58 PM 36.0975 -81.1581 337° Northwest 398 458 20,000  Level Atlanta Center
Sun 12:39:58 PM 36.2031 -81.2161 336° Northwest 409 471 20,000 150 Level Atlanta Center
Sun 12:40:58 PM 36.3086 -81.2717 337° Northwest 415 478 20,300 900 Climbing Atlanta Center
Sun 12:41:58 PM 36.4061 -81.3431 329° Northwest 407 468 21,800 1,300 Climbing Atlanta Center
Sun 12:42:58 PM 36.4961 -81.4486 317° Northwest 401 461 22,900 1,100 Climbing Atlanta Center
Sun 12:43:58 PM 36.5753 -81.5494 314° West 406 467 24,000 1,150 Climbing Atlanta Center
Sun 12:44:58 PM 36.6544 -81.6531 314° West 406 467 25,200 1,188 Climbing Atlanta Center
Sun 12:47:15 PM 36.8322 -81.8833 314° West 401 461 27,900 1,121 Climbing Indianapolis Center
Sun 12:48:16 PM 36.9122 -81.9825 315° West 404 465 28,900 1,024 Climbing Indianapolis Center
Sun 12:49:18 PM 36.9900 -82.0831 314° West 400 460 30,000 1,016 Climbing Indianapolis Center
Sun 12:50:20 PM 37.0661 -82.1828 314° West 398 458 31,000 976 Climbing Indianapolis Center
Sun 12:51:21 PM 37.1411 -82.2800 314° West 391 450 32,000 976 Climbing Indianapolis Center
Sun 12:52:23 PM 37.2150 -82.3767 314° West 386 444 33,000 1,016 Climbing Indianapolis Center
Sun 12:53:25 PM 37.2994 -82.4872 314° West 378 435 34,100 1,073 Climbing Indianapolis Center
Sun 12:54:26 PM 37.3703 -82.5806 314° West 373 429 35,200 927 Climbing Indianapolis Center
Sun 12:55:28 PM 37.4389 -82.6719 313° West 364 419 36,000 387 Climbing Indianapolis Center
Sun 12:56:30 PM 37.5086 -82.7639 314° West 363 418 36,000  Level Indianapolis Center
Sun 12:57:32 PM 37.5819 -82.8617 313° West 380 437 36,000  Level Indianapolis Center
Sun 12:58:34 PM 37.6567 -82.9606 314° West 388 447 36,000  Level Indianapolis Center
Sun 12:59:35 PM 37.7447 -83.0761 314° West 391 450 36,000  Level Indianapolis Center
Sun 01:00:37 PM 37.8186 -83.1772 313° West 390 449 36,000  Level Indianapolis Center
Sun 01:01:39 PM 37.8925 -83.2775 313° West 391 450 36,000  Level Indianapolis Center
Sun 01:02:41 PM 37.9678 -83.3769 314° West 391 450 36,000  Level Indianapolis Center
Sun 01:03:43 PM 38.0433 -83.4806 313° West 397 457 36,000  Level Indianapolis Center
Sun 01:04:45 PM 38.1328 -83.5989 314° West 399 459 36,000  Level Indianapolis Center
Sun 01:05:46 PM 38.2089 -83.7033 313° West 400 460 36,000  Level Indianapolis Center
Sun 01:06:48 PM 38.2842 -83.8067 313° West 398 458 36,000  Level Indianapolis Center
Sun 01:07:50 PM 38.3600 -83.9097 313° West 397 457 36,000  Level Indianapolis Center
Sun 01:08:52 PM 38.4342 -84.0131 313° West 394 453 36,000  Level Indianapolis Center
Sun 01:09:54 PM 38.5097 -84.1144 314° West 394 453 36,000  Level Indianapolis Center
Sun 01:10:56 PM 38.5956 -84.2356 312° West 395 455 36,000  Level Indianapolis Center
Sun 01:11:58 PM 38.6681 -84.3325 314° West 393 452 36,000  Level Indianapolis Center
Sun 01:13:00 PM 38.7444 -84.4372 313° West 398 458 36,000  Level Indianapolis Center
Sun 01:14:02 PM 38.8197 -84.5386 314° West 400 460 36,000 -339 Level Indianapolis Center
Sun 01:15:04 PM 38.8939 -84.6436 312° West 399 459 35,300 -1,403 Descending Indianapolis Center
Sun 01:16:06 PM 38.9786 -84.7497 316° Northwest 404 465 33,100 -2,032 Descending Indianapolis Center
Sun 01:17:08 PM 39.0581 -84.8444 317° Northwest 390 449 31,100 -1,500 Descending Indianapolis Center
Sun 01:18:10 PM 39.1478 -84.9503 318° Northwest 388 447 30,000 -532 Descending Indianapolis Center
Sun 01:19:12 PM 39.2236 -85.0522 314° West 394 453 30,000  Level Indianapolis Center
Sun 01:20:14 PM 39.2964 -85.1575 312° West 396 456 30,000  Level Indianapolis Center
Sun 01:21:16 PM 39.3714 -85.2650 312° West 402 463 30,000  Level Indianapolis Center
Sun 01:22:18 PM 39.4883 -85.3575 329° Northwest 443 510 30,000 -581 Level Indianapolis Center
Sun 01:23:20 PM 39.6067 -85.3950 346° North 444 511 28,800 -1,561 Descending Indianapolis Center
Sun 01:24:21 PM 39.7211 -85.4322 346° North 431 496 26,800 -1,355 Descending Indianapolis Center
Sun 01:25:24 PM 39.8308 -85.4672 346° North 415 478 26,000 -387 Descending Indianapolis Center
Sun 01:26:25 PM 39.9431 -85.5031 346° North 417 480 26,000 -244 Level Indianapolis Center
Sun 01:27:27 PM 40.0803 -85.5461 347° North 425 489 25,500 -911 Descending Indianapolis Center
Sun 01:28:17 PM 40.1706 -85.5744 347° North 426 490 24,300 -804 Descending Chicago Center
Sun 01:29:19 PM 40.2819 -85.6103 346° North 418 481 24,000 -145 Descending Chicago Center
Sun 01:30:21 PM 40.3931 -85.6508 344° North 417 480 24,000  Level Chicago Center
Sun 01:31:23 PM 40.4853 -85.7275 328° Northwest 394 453 24,000  Level Chicago Center
Sun 01:32:25 PM 40.5678 -85.8167 321° Northwest 388 447 24,000 -435 Level Chicago Center
Sun 01:33:27 PM 40.6683 -85.9208 322° Northwest 386 444 23,100 -484 Descending Chicago Center
Sun 01:34:29 PM 40.7475 -86.0036 322° Northwest 383 441 23,000 -290 Descending Chicago Center
Sun 01:35:31 PM 40.8306 -86.0903 322° Northwest 381 438 22,500 -919 Descending Chicago Center
Sun 01:36:33 PM 40.9114 -86.1750 322° Northwest 372 428 21,100 -1,016 Descending Chicago Center
Sun 01:37:35 PM 40.9900 -86.2581 321° Northwest 362 417 20,400 -1,258 Descending Chicago Center
Sun 01:38:37 PM 41.0839 -86.3569 322° Northwest 359 413 18,500 -1,548 Descending Chicago Center
Sun 01:39:39 PM 41.1575 -86.4361 321° Northwest 347 399 17,200 -726 Descending Chicago Center
Sun 01:40:41 PM 41.2311 -86.5150 321° Northwest 341 392 17,000 -823 Descending Chicago Center
Sun 01:41:43 PM 41.3094 -86.5867 326° Northwest 342 394 15,500 -1,452 Descending Chicago Center
Sun 01:42:45 PM 41.3881 -86.6553 327° Northwest 340 391 14,000 -1,210 Descending Chicago Center
Sun 01:43:47 PM 41.4686 -86.7239 327° Northwest 334 384 13,000 -726 Descending Chicago Center
Sun 01:44:49 PM 41.5461 -86.7817 331° Northwest 320 368 12,500 -484 Descending Chicago Center
Sun 01:45:51 PM 41.6500 -86.7931 355° North 316 364 12,000 -242 Descending Chicago Center
Sun 01:46:53 PM 41.7358 -86.8044 354° North 312 359 12,000 -48 Level Chicago Center
Sun 01:47:55 PM 41.8197 -86.8197 352° North 310 357 11,900 -435 Descending Chicago Center
Sun 01:48:57 PM 41.8917 -86.8689 333° Northwest 315 362 11,100 -435 Descending Chicago Center
Sun 01:49:59 PM 41.9269 -86.9706 295° West 306 352 11,000 -871 Descending Chicago Center
Sun 01:51:01 PM 41.9603 -87.0722 294° West 252 290 9,300 -968 Descending Chicago Center
Sun 01:52:03 PM 41.9825 -87.1594 289° West 250 288 9,000 -145 Descending Chicago Center
Sun 01:53:05 PM 41.9825 -87.2539 270° West 252 290 9,000 -98 Level Chicago Center
Sun 01:54:06 PM 41.9844 -87.3475 272° West 252 290 8,800 -439 Descending Chicago Center
Sun 01:54:27 PM 41.9833 -87.3833 268° West 251 289 8,400 -1,037 Descending Chicago TRACON
Sun 01:55:27 PM 41.9833 -87.4667 270° West 213 245 7,400 -1,238 Descending Chicago TRACON
Sun 01:56:33 PM 41.9833 -87.5500 270° West 204 235 5,800 -1,238 Descending Chicago TRACON
Sun 01:57:33 PM 41.9833 -87.6167 270° West 170 196 4,800 -1,000 Descending Chicago TRACON
Sun 01:58:33 PM 41.9833 -87.6833 270° West 172 198 3,800 -947 Descending Chicago TRACON
Sun 01:59:27 PM 41.9833 -87.7333 270° West 154 177 3,000 -895 Descending Chicago TRACON
Sun 02:00:27 PM 41.9833 -87.8000 270° West 151 174 2,100 -900 Descending Chicago TRACON

Login

Don't have an account? Register now (free) for customized features, flight alerts, and more!